createdAt,value
2023-03-11T00:00:38.647Z,2.28
2023-03-11T00:03:08.066Z,2.23
2023-03-11T00:05:38.138Z,2.29
2023-03-11T00:08:06.282Z,2.32
2023-03-11T00:10:38.678Z,2.36
2023-03-11T00:13:06.593Z,2.39
2023-03-11T00:15:33.476Z,2.37
2023-03-11T00:18:00.057Z,2.51
2023-03-11T00:20:32.384Z,2.47
2023-03-11T00:22:59.693Z,2.61
2023-03-11T00:25:28.869Z,2.50
2023-03-11T00:27:56.082Z,2.37
2023-03-11T00:30:23.809Z,2.46
2023-03-11T00:32:51.682Z,2.37
2023-03-11T00:35:21.182Z,2.53
2023-03-11T00:37:48.314Z,2.49
2023-03-11T00:40:18.821Z,2.37
2023-03-11T00:42:45.643Z,2.47
2023-03-11T00:45:13.767Z,2.29
2023-03-11T00:47:40.362Z,2.36
2023-03-11T00:50:09.532Z,2.39
2023-03-11T00:52:35.955Z,2.36
2023-03-11T00:55:02.299Z,2.43
2023-03-11T01:00:44.176Z,2.44
2023-03-11T01:03:10.656Z,2.30
2023-03-11T01:05:37.298Z,2.50
2023-03-11T01:08:04.346Z,2.41
2023-03-11T01:10:32.518Z,2.44
2023-03-11T01:12:59.073Z,2.37
2023-03-11T01:15:34.623Z,2.40
2023-03-11T01:18:01.943Z,2.36
2023-03-11T01:20:28.877Z,2.25
2023-03-11T01:22:55.476Z,2.36
2023-03-11T01:25:23.574Z,2.54
2023-03-11T01:27:50.079Z,2.51
2023-03-11T01:30:20.328Z,2.51
2023-03-11T01:32:46.888Z,2.43
2023-03-11T01:35:15.829Z,2.39
2023-03-11T01:37:42.333Z,2.41
2023-03-11T01:40:16.170Z,2.34
2023-03-11T01:42:42.793Z,2.39
2023-03-11T01:45:29.475Z,2.34
2023-03-11T01:47:55.905Z,2.26
2023-03-11T01:50:22.665Z,2.25
2023-03-11T01:52:49.270Z,2.32
2023-03-11T01:55:18.376Z,2.36
2023-03-11T01:57:46.661Z,2.34
2023-03-11T02:00:15.807Z,2.28
2023-03-11T02:02:49.090Z,2.32
2023-03-11T02:05:18.068Z,2.29
2023-03-11T02:07:44.513Z,2.44
2023-03-11T02:10:13.428Z,2.43
2023-03-11T02:12:40.822Z,2.51
2023-03-11T02:15:09.577Z,2.49
2023-03-11T02:17:38.174Z,2.49
2023-03-11T02:20:18.300Z,2.36
2023-03-11T02:22:44.995Z,2.26
2023-03-11T02:25:17.376Z,2.16
2023-03-11T02:27:47.551Z,2.13
2023-03-11T02:30:15.318Z,2.06
2023-03-11T02:32:44.257Z,2.03
2023-03-11T02:35:11.174Z,2.03
2023-03-11T02:37:39.156Z,2.03
2023-03-11T02:40:24.579Z,1.98
2023-03-11T02:42:58.011Z,1.97
2023-03-11T02:45:26.407Z,1.97
2023-03-11T02:47:55.273Z,1.92
2023-03-11T02:50:22.362Z,1.98
2023-03-11T02:52:49.933Z,1.95
2023-03-11T02:55:18.236Z,1.95
2023-03-11T02:57:44.927Z,1.86
2023-03-11T03:00:15.074Z,1.86
2023-03-11T03:02:42.761Z,1.86
2023-03-11T03:05:10.377Z,1.95
2023-03-11T03:07:37.406Z,1.77
2023-03-11T03:10:06.296Z,1.67
2023-03-11T03:12:32.722Z,1.61
2023-03-11T03:14:59.209Z,1.64
2023-03-11T03:17:25.623Z,1.50
2023-03-11T03:19:52.224Z,1.44
2023-03-11T03:22:18.755Z,1.41
2023-03-11T03:24:45.471Z,1.48
2023-03-11T03:27:12.314Z,1.51
2023-03-11T03:29:38.776Z,1.51
2023-03-11T03:32:05.832Z,1.41
2023-03-11T03:34:32.409Z,1.44
2023-03-11T03:36:58.814Z,1.58
2023-03-11T03:39:25.224Z,1.62
2023-03-11T03:41:51.623Z,1.40
2023-03-11T03:44:18.226Z,1.44
2023-03-11T03:46:44.836Z,1.37
2023-03-11T03:49:11.594Z,1.27
2023-03-11T03:51:37.967Z,1.16
2023-03-11T03:54:04.592Z,1.20
2023-03-11T03:56:31.065Z,1.15
2023-03-11T03:58:57.498Z,1.17
2023-03-11T04:01:24.231Z,1.12
2023-03-11T04:03:50.722Z,1.04
2023-03-11T04:06:25.703Z,1.00
2023-03-11T04:08:53.650Z,0.95
2023-03-11T04:11:21.337Z,0.92
2023-03-11T04:13:48.293Z,0.89
2023-03-11T04:16:18.536Z,0.91
2023-03-11T04:18:45.258Z,0.88
2023-03-11T04:21:11.726Z,0.85
2023-03-11T04:23:38.325Z,0.83
2023-03-11T04:26:05.085Z,0.78
2023-03-11T04:28:31.564Z,0.73
2023-03-11T04:30:58.009Z,0.71
2023-03-11T04:33:25.035Z,0.62
2023-03-11T04:35:51.544Z,0.68
2023-03-11T04:38:17.971Z,0.69
2023-03-11T04:40:44.386Z,0.69
2023-03-11T04:43:10.858Z,0.65
2023-03-11T04:45:42.315Z,0.61
2023-03-11T04:48:08.798Z,0.64
2023-03-11T04:50:35.325Z,0.65
2023-03-11T04:53:01.838Z,0.55
2023-03-11T04:55:28.245Z,0.48
2023-03-11T04:57:54.701Z,0.34
2023-03-11T05:00:24.973Z,0.25
2023-03-11T05:02:52.290Z,0.30
2023-03-11T05:05:19.979Z,0.25
2023-03-11T05:07:46.671Z,0.23
2023-03-11T05:10:13.407Z,0.33
2023-03-11T05:12:40.377Z,0.47
2023-03-11T05:15:07.469Z,0.52
2023-03-11T05:17:33.975Z,0.50
2023-03-11T05:20:00.658Z,0.54
2023-03-11T05:22:27.219Z,0.55
2023-03-11T05:24:53.574Z,0.61
2023-03-11T05:27:21.382Z,0.69
2023-03-11T05:29:48.012Z,0.88
2023-03-11T05:32:14.815Z,0.75
2023-03-11T05:34:42.916Z,0.68
2023-03-11T05:37:09.313Z,0.58
2023-03-11T05:39:37.685Z,0.65
2023-03-11T05:42:05.670Z,0.47
2023-03-11T05:44:32.702Z,0.41
2023-03-11T05:46:59.469Z,0.47
2023-03-11T05:49:26.361Z,0.45
2023-03-11T05:51:55.626Z,0.62
2023-03-11T05:54:23.304Z,0.54
2023-03-11T05:56:49.718Z,0.54
2023-03-11T05:59:16.773Z,0.42
2023-03-11T06:01:44.409Z,0.40
2023-03-11T06:04:11.124Z,0.38
2023-03-11T06:06:40.477Z,0.38
2023-03-11T06:09:07.560Z,0.40
2023-03-11T06:11:33.980Z,0.55
2023-03-11T06:14:00.535Z,0.66
2023-03-11T06:16:27.004Z,0.66
2023-03-11T06:18:53.512Z,0.78
2023-03-11T06:21:22.896Z,0.91
2023-03-11T06:23:50.797Z,1.02
2023-03-11T06:26:23.783Z,1.06
2023-03-11T06:28:52.762Z,1.20
2023-03-11T06:31:21.927Z,1.31
2023-03-11T06:34:33.445Z,1.46
2023-03-11T06:37:00.151Z,1.47
2023-03-11T06:39:26.670Z,1.55
2023-03-11T06:41:53.106Z,1.52
2023-03-11T06:44:19.859Z,1.64
2023-03-11T06:46:46.346Z,1.65
2023-03-11T06:49:12.753Z,1.51
2023-03-11T06:51:39.169Z,1.48
2023-03-11T06:54:06.513Z,1.34
2023-03-11T06:56:32.937Z,1.39
2023-03-11T06:58:59.284Z,1.33
2023-03-11T07:01:26.045Z,1.39
2023-03-11T07:03:52.765Z,1.46
2023-03-11T07:06:24.436Z,1.67
2023-03-11T07:08:52.572Z,1.94
2023-03-11T07:11:24.683Z,2.19
2023-03-11T07:13:52.434Z,2.68
2023-03-11T07:16:21.594Z,3.20
2023-03-11T07:18:49.081Z,3.64
2023-03-11T07:21:18.758Z,3.02
2023-03-11T07:23:45.695Z,2.37
2023-03-11T07:26:15.340Z,2.91
2023-03-11T07:28:42.306Z,2.47
2023-03-11T07:32:35.933Z,2.74
2023-03-11T07:35:02.361Z,2.44
2023-03-11T07:37:32.719Z,2.44
2023-03-11T07:39:59.100Z,2.50
2023-03-11T07:42:25.469Z,2.94
2023-03-11T07:44:51.892Z,3.18
2023-03-11T07:47:18.365Z,4.22
2023-03-11T07:49:44.772Z,4.93
2023-03-11T07:52:11.207Z,4.75
2023-03-11T07:54:37.609Z,4.31
2023-03-11T07:57:04.018Z,3.80
2023-03-11T07:59:30.453Z,3.28
2023-03-11T08:02:00.177Z,3.63
2023-03-11T08:04:26.731Z,4.24
2023-03-11T08:06:53.173Z,3.73
2023-03-11T08:09:19.549Z,3.78
2023-03-11T08:11:47.155Z,4.29
2023-03-11T08:14:14.552Z,4.11
2023-03-11T08:16:41.333Z,4.05
2023-03-11T08:19:10.716Z,6.04
2023-03-11T08:21:37.261Z,6.30
2023-03-11T08:24:06.604Z,5.69
2023-03-11T08:26:33.420Z,6.37
2023-03-11T08:29:00.148Z,5.52
2023-03-11T08:31:32.819Z,5.21
2023-03-11T08:34:03.004Z,5.67
2023-03-11T08:36:30.365Z,5.79
2023-03-11T08:38:57.684Z,6.47
2023-03-11T08:41:24.655Z,8.71
2023-03-11T08:43:52.231Z,6.75
2023-03-11T08:46:27.573Z,7.06
2023-03-11T08:48:55.000Z,6.60
2023-03-11T08:51:22.834Z,7.40
2023-03-11T08:53:49.962Z,7.96
2023-03-11T08:56:16.769Z,9.05
2023-03-11T08:58:43.216Z,9.79
2023-03-11T09:01:12.228Z,10.90
2023-03-11T09:03:39.472Z,9.86
2023-03-11T09:06:09.107Z,10.53
2023-03-11T09:08:35.883Z,8.67
2023-03-11T09:11:02.323Z,8.89
2023-03-11T09:13:29.091Z,10.01
2023-03-11T09:15:55.624Z,10.26
2023-03-11T09:18:22.034Z,11.06
2023-03-11T09:20:48.446Z,10.25
2023-03-11T09:23:17.092Z,10.00
2023-03-11T09:25:44.058Z,9.50
2023-03-11T09:28:10.416Z,10.55
2023-03-11T09:30:36.908Z,9.94
2023-03-11T09:33:03.444Z,10.66
2023-03-11T09:35:29.908Z,12.21
2023-03-11T09:37:56.545Z,12.47
2023-03-11T09:40:26.183Z,10.14
2023-03-11T09:42:55.547Z,8.36
2023-03-11T09:45:30.161Z,8.28
2023-03-11T09:48:07.141Z,9.81
2023-03-11T09:50:46.404Z,8.59
2023-03-11T09:53:45.780Z,9.32
2023-03-11T09:56:20.514Z,9.05
2023-03-11T09:58:59.723Z,10.07
2023-03-11T10:01:30.640Z,9.18
2023-03-11T10:04:05.709Z,8.12
2023-03-11T10:06:32.129Z,7.99
2023-03-11T10:09:13.450Z,8.22
2023-03-11T10:12:01.920Z,7.91
2023-03-11T10:14:51.766Z,7.77
2023-03-11T10:17:39.574Z,7.57
2023-03-11T10:20:27.417Z,7.37
2023-03-11T10:23:06.384Z,8.64
2023-03-11T10:26:06.425Z,10.29
2023-03-11T10:28:46.780Z,10.56
2023-03-11T10:31:34.834Z,8.57
2023-03-11T10:34:05.586Z,8.15
2023-03-11T10:37:06.732Z,7.82
2023-03-11T10:39:34.156Z,6.81
2023-03-11T10:42:03.319Z,7.06
2023-03-11T10:44:34.978Z,7.10
2023-03-11T10:47:02.345Z,7.13
2023-03-11T10:49:29.046Z,6.74
2023-03-11T10:51:57.213Z,6.95
2023-03-11T10:54:38.346Z,7.82
2023-03-11T10:57:20.119Z,8.03
2023-03-11T10:59:50.454Z,9.11
2023-03-11T11:02:53.910Z,9.98
2023-03-11T11:05:20.271Z,10.65
2023-03-11T11:07:49.349Z,11.06
2023-03-11T11:10:18.776Z,11.00
2023-03-11T11:13:04.059Z,10.42
2023-03-11T11:15:32.037Z,9.98
2023-03-11T11:18:19.312Z,9.57
2023-03-11T11:21:06.484Z,9.15
2023-03-11T11:23:39.354Z,8.61
2023-03-11T11:26:26.349Z,7.75
2023-03-11T11:29:28.049Z,6.68
2023-03-11T11:32:19.250Z,6.99
2023-03-11T11:34:53.620Z,6.40
2023-03-11T11:37:20.868Z,5.77
2023-03-11T11:39:52.782Z,6.30
2023-03-11T11:42:20.469Z,6.20
2023-03-11T11:44:52.100Z,6.41
2023-03-11T11:47:26.074Z,6.55
2023-03-11T11:49:56.052Z,6.24
2023-03-11T11:52:25.832Z,6.23
2023-03-11T11:55:01.402Z,5.95
2023-03-11T11:57:28.593Z,5.99
2023-03-11T11:59:58.356Z,6.00
2023-03-11T12:03:01.852Z,6.16
2023-03-11T12:05:37.887Z,7.02
2023-03-11T12:08:09.058Z,6.92
2023-03-11T12:11:02.029Z,6.69
2023-03-11T12:14:00.148Z,7.93
2023-03-11T12:16:34.477Z,9.16
2023-03-11T12:19:06.895Z,9.11
2023-03-11T12:22:10.355Z,9.47
2023-03-11T12:25:12.775Z,9.33
2023-03-11T12:27:50.040Z,9.53
2023-03-11T12:30:27.208Z,8.37
2023-03-11T12:33:02.696Z,8.49
2023-03-11T12:35:35.373Z,8.74
2023-03-11T12:38:27.201Z,7.88
2023-03-11T12:41:00.985Z,8.06
2023-03-11T12:43:33.836Z,8.06
2023-03-11T12:46:01.320Z,7.50
2023-03-11T12:48:27.820Z,7.78
2023-03-11T12:50:55.294Z,7.92
2023-03-11T12:53:42.661Z,7.47
2023-03-11T12:56:39.851Z,7.24
2023-03-11T12:59:32.191Z,7.40
2023-03-11T13:02:19.360Z,7.74
2023-03-11T13:04:57.041Z,8.01
2023-03-11T13:07:25.735Z,7.65
2023-03-11T13:10:24.517Z,8.57
2023-03-11T13:12:52.434Z,8.97
2023-03-11T13:15:18.869Z,8.98
2023-03-11T13:18:12.583Z,9.77
2023-03-11T13:20:38.963Z,9.12
2023-03-11T13:23:08.529Z,9.36
2023-03-11T13:25:42.060Z,10.11
2023-03-11T13:28:20.104Z,10.66
2023-03-11T13:31:14.339Z,10.87
2023-03-11T13:34:01.159Z,10.97
2023-03-11T13:36:51.380Z,9.35
2023-03-11T13:39:39.023Z,7.37
2023-03-11T13:42:42.688Z,6.97
2023-03-11T13:45:27.355Z,7.07
2023-03-11T13:47:59.923Z,7.24
2023-03-11T13:50:51.736Z,7.50
2023-03-11T13:53:25.830Z,8.30
2023-03-11T13:55:52.737Z,9.97
2023-03-11T13:58:27.089Z,11.17
2023-03-11T14:00:55.260Z,12.10
2023-03-11T14:03:26.902Z,11.30
2023-03-11T14:06:08.541Z,10.10
2023-03-11T14:08:37.143Z,9.38
2023-03-11T14:11:16.370Z,8.42
2023-03-11T14:13:50.147Z,8.01
2023-03-11T14:16:35.249Z,8.05
2023-03-11T14:19:04.768Z,7.72
2023-03-11T14:21:33.883Z,7.84
2023-03-11T14:24:02.793Z,7.89
2023-03-11T14:26:34.917Z,7.88
2023-03-11T14:29:10.942Z,7.68
2023-03-11T14:31:39.855Z,7.68
2023-03-11T14:34:21.504Z,8.61
2023-03-11T14:36:53.949Z,8.21
2023-03-11T14:39:34.694Z,8.92
2023-03-11T14:42:15.112Z,9.12
2023-03-11T14:44:45.901Z,8.60
2023-03-11T14:47:23.469Z,8.19
2023-03-11T14:49:51.633Z,7.88
2023-03-11T14:52:37.882Z,7.50
2023-03-11T14:55:12.544Z,7.34
2023-03-11T14:57:49.919Z,7.43
2023-03-11T15:00:25.209Z,7.27
2023-03-11T15:03:03.585Z,7.47
2023-03-11T15:05:47.322Z,7.44
2023-03-11T15:08:18.448Z,7.48
2023-03-11T15:11:05.140Z,7.34
2023-03-11T15:13:32.567Z,7.46
2023-03-11T15:16:01.687Z,8.23
2023-03-11T15:18:36.327Z,8.07
2023-03-11T15:21:14.263Z,7.99
2023-03-11T15:23:49.322Z,8.13
2023-03-11T15:26:28.178Z,8.10
2023-03-11T15:29:06.623Z,8.16
2023-03-11T15:31:36.545Z,8.19
2023-03-11T15:34:27.578Z,8.25
2023-03-11T15:36:58.782Z,8.07
2023-03-11T15:39:31.041Z,7.88
2023-03-11T15:42:13.578Z,7.47
2023-03-11T15:44:56.186Z,7.70
2023-03-11T15:47:23.485Z,8.36
2023-03-11T15:49:52.027Z,8.89
2023-03-11T15:52:20.303Z,8.92
2023-03-11T15:54:54.968Z,7.98
2023-03-11T15:57:28.046Z,8.75
2023-03-11T15:59:57.114Z,9.00
2023-03-11T16:02:28.955Z,8.49
2023-03-11T16:04:56.814Z,8.64
2023-03-11T16:07:38.727Z,9.31
2023-03-11T16:10:08.089Z,9.39
2023-03-11T16:12:34.889Z,8.47
2023-03-11T16:15:04.376Z,8.88
2023-03-11T16:17:46.840Z,8.23
2023-03-11T16:20:15.763Z,8.23
2023-03-11T16:22:42.442Z,8.64
2023-03-11T16:25:20.569Z,9.32
2023-03-11T16:27:49.611Z,8.22
2023-03-11T16:30:16.576Z,8.57
2023-03-11T16:32:43.595Z,8.97
2023-03-11T16:35:10.894Z,8.71
2023-03-11T16:40:28.228Z,8.01
2023-03-11T16:43:02.404Z,8.80
2023-03-11T16:45:29.491Z,8.87
2023-03-11T16:47:55.921Z,9.10
2023-03-11T16:50:26.144Z,9.22
2023-03-11T16:52:54.044Z,9.21
2023-03-11T16:55:22.710Z,8.75
2023-03-11T16:57:49.195Z,8.57
2023-03-11T17:00:18.639Z,7.85
2023-03-11T17:02:45.147Z,7.84
2023-03-11T17:05:11.682Z,7.63
2023-03-11T17:07:40.283Z,7.33
2023-03-11T17:10:08.729Z,7.12
2023-03-11T17:12:36.022Z,6.97
2023-03-11T17:15:04.094Z,6.69
2023-03-11T17:17:30.581Z,6.44
2023-03-11T17:19:57.052Z,6.20
2023-03-11T17:22:23.671Z,6.10
2023-03-11T17:24:50.108Z,6.11
2023-03-11T17:27:16.547Z,5.90
2023-03-11T17:29:43.624Z,5.79
2023-03-11T17:32:16.808Z,5.86
2023-03-11T17:34:43.852Z,5.55
2023-03-11T17:37:10.204Z,5.34
2023-03-11T17:39:36.660Z,5.38
2023-03-11T17:42:06.061Z,5.24
2023-03-11T17:44:48.499Z,5.11
2023-03-11T17:47:19.668Z,5.07
2023-03-11T17:49:46.879Z,5.07
2023-03-11T17:52:13.342Z,4.87
2023-03-11T17:54:41.134Z,4.72
2023-03-11T17:57:07.552Z,4.59
2023-03-11T17:59:34.212Z,4.42
2023-03-11T18:02:00.796Z,4.42
2023-03-11T18:04:27.590Z,4.42
2023-03-11T18:06:55.222Z,4.18
2023-03-11T18:09:24.106Z,4.18
2023-03-11T18:11:50.469Z,3.94
2023-03-11T18:14:16.897Z,3.95
2023-03-11T18:16:47.853Z,3.91
2023-03-11T18:19:14.325Z,3.87
2023-03-11T18:21:40.916Z,3.78
2023-03-11T18:24:07.387Z,3.76
2023-03-11T18:26:33.750Z,3.60
2023-03-11T18:29:01.021Z,3.69
2023-03-11T18:31:29.250Z,3.56
2023-03-11T18:33:58.630Z,3.69
2023-03-11T18:36:28.626Z,3.44
2023-03-11T18:38:57.465Z,3.33
2023-03-11T18:41:25.530Z,3.42
2023-03-11T18:43:57.669Z,3.33
2023-03-11T18:46:25.846Z,3.19
2023-03-11T18:48:59.471Z,3.16
2023-03-11T18:51:28.250Z,3.19
2023-03-11T18:53:55.249Z,3.15
2023-03-11T18:57:35.955Z,3.15
2023-03-11T19:00:02.826Z,3.11
2023-03-11T19:02:29.660Z,2.88
2023-03-11T19:04:59.587Z,2.90
2023-03-11T19:07:28.485Z,2.77
2023-03-11T19:09:54.925Z,2.73
2023-03-11T19:12:21.374Z,2.67
2023-03-11T19:14:47.863Z,2.65
2023-03-11T19:17:16.365Z,2.68
2023-03-11T19:19:44.160Z,2.54
2023-03-11T19:22:10.504Z,2.60
2023-03-11T19:24:36.906Z,2.58
2023-03-11T19:27:03.942Z,2.57
2023-03-11T19:29:30.312Z,2.47
2023-03-11T19:31:56.742Z,2.56
2023-03-11T19:34:23.450Z,2.32
2023-03-11T19:36:51.457Z,2.53
2023-03-11T19:39:19.444Z,2.25
2023-03-11T19:41:46.918Z,2.18
2023-03-11T19:44:13.394Z,2.18
2023-03-11T19:46:40.213Z,2.10
2023-03-11T19:49:07.431Z,1.95
2023-03-11T19:51:48.578Z,1.95
2023-03-11T19:54:16.095Z,1.92
2023-03-11T19:56:42.677Z,2.02
2023-03-11T19:59:09.405Z,1.97
2023-03-11T20:01:35.809Z,1.97
2023-03-11T20:04:02.206Z,1.83
2023-03-11T20:06:28.905Z,1.89
2023-03-11T20:08:55.314Z,1.79
2023-03-11T20:11:22.003Z,1.77
2023-03-11T20:13:48.563Z,1.79
2023-03-11T20:16:18.757Z,1.74
2023-03-11T20:18:48.181Z,1.75
2023-03-11T20:21:14.623Z,1.78
2023-03-11T20:23:41.122Z,1.83
2023-03-11T20:26:12.043Z,1.97
2023-03-11T20:28:39.017Z,1.82
2023-03-11T20:31:15.628Z,1.77
2023-03-11T20:33:43.023Z,1.64
2023-03-11T20:36:12.834Z,1.48
2023-03-11T20:38:39.791Z,1.52
2023-03-11T20:41:09.662Z,1.40
2023-03-11T20:43:38.832Z,1.44
2023-03-11T20:46:07.036Z,1.34
2023-03-11T20:48:34.792Z,1.31
2023-03-11T20:51:02.818Z,1.36
2023-03-11T20:53:32.320Z,1.31
2023-03-11T20:56:00.545Z,1.17
2023-03-11T20:58:27.012Z,1.37
2023-03-11T21:00:53.447Z,1.36
2023-03-11T21:03:20.237Z,1.34
2023-03-11T21:05:47.145Z,1.33
2023-03-11T21:08:13.753Z,1.31
2023-03-11T21:10:40.537Z,1.29
2023-03-11T21:13:07.540Z,1.29
2023-03-11T21:15:35.989Z,1.22
2023-03-11T21:18:03.603Z,1.17
2023-03-11T21:20:30.186Z,1.06
2023-03-11T21:22:56.579Z,1.02
2023-03-11T21:25:23.283Z,1.00
2023-03-11T21:27:49.705Z,0.92
2023-03-11T21:30:16.180Z,0.97
2023-03-11T21:32:43.678Z,0.82
2023-03-11T21:35:10.255Z,1.00
2023-03-11T21:37:36.697Z,0.96
2023-03-11T21:40:04.024Z,0.93
2023-03-11T21:42:30.555Z,1.00
2023-03-11T21:44:57.127Z,0.95
2023-03-11T21:47:23.608Z,0.93
2023-03-11T21:49:50.168Z,0.82
2023-03-11T21:52:16.659Z,0.78
2023-03-11T21:54:43.680Z,0.93
2023-03-11T21:57:11.216Z,0.86
2023-03-11T21:59:37.731Z,0.78
2023-03-11T22:02:04.874Z,0.88
2023-03-11T22:04:32.038Z,0.75
2023-03-11T22:06:59.020Z,0.71
2023-03-11T22:09:26.284Z,0.71
2023-03-11T22:11:53.068Z,0.85
2023-03-11T22:14:19.665Z,0.83
2023-03-11T22:16:46.615Z,0.79
2023-03-11T22:19:13.192Z,0.91
2023-03-11T22:21:39.791Z,0.97
2023-03-11T22:24:06.534Z,0.95
2023-03-11T22:26:33.302Z,1.00
2023-03-11T22:28:59.691Z,0.96
2023-03-11T22:31:26.200Z,1.06
2023-03-11T22:33:52.863Z,1.07
2023-03-11T22:36:19.286Z,1.24
2023-03-11T22:38:46.006Z,1.17
2023-03-11T22:41:13.821Z,1.34
2023-03-11T22:43:40.275Z,1.26
2023-03-11T22:46:06.939Z,1.31
2023-03-11T22:48:34.001Z,1.54
2023-03-11T22:51:00.492Z,1.33
2023-03-11T22:53:27.107Z,1.54
2023-03-11T22:55:53.985Z,1.50
2023-03-11T22:58:20.736Z,1.58
2023-03-11T23:00:48.666Z,1.43
2023-03-11T23:03:16.161Z,1.46
2023-03-11T23:05:43.325Z,1.48
2023-03-11T23:08:12.296Z,1.39
2023-03-11T23:10:44.072Z,1.55
2023-03-11T23:13:11.139Z,1.41
2023-03-11T23:15:40.842Z,1.41
2023-03-11T23:18:07.714Z,1.40
2023-03-11T23:20:36.770Z,1.39
2023-03-11T23:23:04.430Z,1.57
2023-03-11T23:25:31.892Z,1.51
2023-03-11T23:27:58.451Z,1.48
2023-03-11T23:30:25.022Z,1.48
2023-03-11T23:32:51.580Z,1.52
2023-03-11T23:35:18.606Z,1.55
2023-03-11T23:37:48.971Z,1.51
2023-03-11T23:40:16.211Z,1.64
2023-03-11T23:42:42.788Z,1.60
2023-03-11T23:45:09.897Z,1.71
2023-03-11T23:47:36.746Z,1.60
2023-03-11T23:50:04.136Z,1.50
2023-03-11T23:52:30.545Z,1.74
2023-03-11T23:54:56.915Z,1.62
2023-03-11T23:57:23.638Z,1.61
2023-03-11T23:59:50.063Z,1.50
